createdAt,value
2023-06-13T00:01:49.730Z,26.00
2023-06-13T00:04:24.750Z,26.00
2023-06-13T00:06:54.423Z,26.00
2023-06-13T00:09:22.156Z,26.00
2023-06-13T00:11:51.916Z,25.90
2023-06-13T00:14:24.402Z,25.90
2023-06-13T00:16:51.469Z,25.90
2023-06-13T00:19:19.725Z,25.90
2023-06-13T00:21:46.917Z,25.90
2023-06-13T00:24:14.133Z,25.90
2023-06-13T00:26:41.054Z,25.90
2023-06-13T00:29:07.836Z,25.90
2023-06-13T00:31:34.661Z,25.90
2023-06-13T00:34:02.249Z,25.90
2023-06-13T00:36:30.025Z,25.90
2023-06-13T00:38:58.294Z,25.90
2023-06-13T00:41:25.831Z,25.90
2023-06-13T00:43:53.177Z,25.90
2023-06-13T00:46:30.186Z,25.90
2023-06-13T00:49:01.035Z,25.90
2023-06-13T00:51:29.306Z,25.90
2023-06-13T00:53:57.931Z,25.90
2023-06-13T00:56:25.449Z,25.90
2023-06-13T00:58:56.096Z,25.90
2023-06-13T01:01:23.776Z,25.90
2023-06-13T01:03:51.756Z,25.90
2023-06-13T01:06:18.761Z,25.80
2023-06-13T01:08:46.383Z,25.80
2023-06-13T01:11:44.987Z,25.80
2023-06-13T01:14:17.663Z,25.80
2023-06-13T01:16:55.407Z,25.80
2023-06-13T01:19:43.119Z,25.80
2023-06-13T01:22:19.026Z,25.80
2023-06-13T01:24:54.492Z,25.80
2023-06-13T01:27:23.589Z,25.80
2023-06-13T01:29:53.421Z,25.80
2023-06-13T01:32:22.765Z,25.80
2023-06-13T01:34:50.556Z,25.80
2023-06-13T01:37:19.425Z,25.80
2023-06-13T01:39:46.231Z,25.80
2023-06-13T01:42:13.062Z,25.80
2023-06-13T01:44:40.323Z,25.80
2023-06-13T01:47:26.903Z,25.70
2023-06-13T01:50:11.724Z,25.70
2023-06-13T01:52:48.387Z,25.70
2023-06-13T01:55:21.292Z,25.70
2023-06-13T01:57:58.500Z,25.70
2023-06-13T02:00:25.985Z,25.70
2023-06-13T02:02:53.913Z,25.70
2023-06-13T02:05:21.235Z,25.70
2023-06-13T02:07:48.757Z,25.70
2023-06-13T02:10:19.478Z,25.70
2023-06-13T02:12:46.325Z,25.70
2023-06-13T02:15:13.116Z,25.70
2023-06-13T02:17:40.310Z,25.70
2023-06-13T02:20:08.692Z,25.70
2023-06-13T02:22:35.510Z,25.70
2023-06-13T02:25:04.189Z,25.70
2023-06-13T02:27:31.123Z,25.70
2023-06-13T02:29:58.164Z,25.70
2023-06-13T02:32:25.691Z,25.70
2023-06-13T02:34:53.294Z,25.70
2023-06-13T02:37:21.329Z,25.70
2023-06-13T02:39:49.649Z,25.70
2023-06-13T02:42:16.399Z,25.70
2023-06-13T02:44:43.294Z,25.60
2023-06-13T02:47:10.028Z,25.60
2023-06-13T02:49:36.722Z,25.60
2023-06-13T02:52:03.752Z,25.60
2023-06-13T02:54:30.996Z,25.60
2023-06-13T02:56:57.898Z,25.60
2023-06-13T02:59:26.157Z,25.60
2023-06-13T03:01:53.538Z,25.60
2023-06-13T03:04:20.502Z,25.60
2023-06-13T03:06:48.121Z,25.60
2023-06-13T03:09:16.915Z,25.60
2023-06-13T03:11:43.719Z,25.60
2023-06-13T03:14:10.635Z,25.60
2023-06-13T03:16:37.476Z,25.60
2023-06-13T03:19:05.482Z,25.60
2023-06-13T03:21:32.364Z,25.50
2023-06-13T03:23:59.750Z,25.50
2023-06-13T03:26:29.557Z,25.50
2023-06-13T03:28:59.096Z,25.50
2023-06-13T03:31:26.608Z,25.50
2023-06-13T03:33:55.590Z,25.50
2023-06-13T03:36:22.656Z,25.50
2023-06-13T03:38:51.389Z,25.50
2023-06-13T03:41:18.322Z,25.50
2023-06-13T03:43:45.649Z,25.50
2023-06-13T03:46:15.734Z,25.50
2023-06-13T03:48:43.173Z,25.50
2023-06-13T03:51:10.403Z,25.50
2023-06-13T03:53:37.441Z,25.50
2023-06-13T03:56:05.252Z,25.50
2023-06-13T03:58:33.940Z,25.40
2023-06-13T04:01:01.942Z,25.40
2023-06-13T04:03:30.791Z,25.40
2023-06-13T04:05:57.934Z,25.40
2023-06-13T04:08:24.788Z,25.40
2023-06-13T04:10:51.619Z,25.40
2023-06-13T04:13:18.356Z,25.40
2023-06-13T04:15:45.118Z,25.40
2023-06-13T04:18:11.919Z,25.40
2023-06-13T04:20:39.563Z,25.30
2023-06-13T04:23:07.183Z,25.30
2023-06-13T04:25:34.203Z,25.20
2023-06-13T04:28:01.170Z,25.20
2023-06-13T04:30:29.509Z,25.20
2023-06-13T04:32:58.419Z,25.20
2023-06-13T04:35:26.106Z,25.20
2023-06-13T04:37:53.255Z,25.20
2023-06-13T04:40:20.541Z,25.20
2023-06-13T04:42:53.259Z,25.10
2023-06-13T04:45:22.605Z,25.10
2023-06-13T04:47:57.373Z,25.10
2023-06-13T04:50:27.033Z,25.10
2023-06-13T04:52:55.506Z,25.10
2023-06-13T04:55:23.614Z,25.10
2023-06-13T04:57:50.920Z,25.10
2023-06-13T05:00:19.348Z,25.10
2023-06-13T05:02:46.716Z,25.10
2023-06-13T05:05:17.429Z,25.10
2023-06-13T05:07:44.536Z,25.10
2023-06-13T05:10:13.466Z,25.10
2023-06-13T05:12:41.756Z,25.10
2023-06-13T05:15:08.867Z,25.10
2023-06-13T05:17:38.530Z,25.10
2023-06-13T05:20:06.623Z,25.10
2023-06-13T05:22:33.648Z,25.10
2023-06-13T05:25:01.089Z,25.10
2023-06-13T05:27:28.321Z,25.10
2023-06-13T05:29:55.357Z,25.10
2023-06-13T05:32:22.122Z,25.10
2023-06-13T05:34:48.931Z,25.10
2023-06-13T05:37:15.920Z,25.10
2023-06-13T05:39:42.996Z,25.10
2023-06-13T05:42:09.882Z,25.10
2023-06-13T05:44:36.855Z,25.10
2023-06-13T05:47:04.308Z,25.10
2023-06-13T05:49:31.077Z,25.10
2023-06-13T05:51:58.310Z,25.10
2023-06-13T05:54:25.049Z,25.10
2023-06-13T05:56:51.746Z,25.10
2023-06-13T05:59:18.699Z,25.10
2023-06-13T06:01:47.751Z,25.10
2023-06-13T06:04:14.565Z,25.10
2023-06-13T06:06:41.396Z,25.10
2023-06-13T06:09:09.119Z,25.10
2023-06-13T06:11:36.361Z,25.10
2023-06-13T06:14:03.586Z,25.10
2023-06-13T06:16:30.866Z,25.10
2023-06-13T06:18:57.865Z,25.20
2023-06-13T06:21:24.713Z,25.20
2023-06-13T06:23:51.645Z,25.20
2023-06-13T06:26:18.523Z,25.20
2023-06-13T06:28:45.310Z,25.20
2023-06-13T06:31:12.239Z,25.20
2023-06-13T06:33:39.062Z,25.20
2023-06-13T06:36:06.040Z,25.20
2023-06-13T06:38:32.841Z,25.20
2023-06-13T06:40:59.680Z,25.20
2023-06-13T06:43:26.492Z,25.20
2023-06-13T06:45:54.541Z,25.30
2023-06-13T06:48:21.321Z,25.30
2023-06-13T06:50:48.090Z,25.30
2023-06-13T06:53:14.887Z,25.30
2023-06-13T06:55:41.657Z,25.30
2023-06-13T06:58:08.402Z,25.30
2023-06-13T07:00:35.229Z,25.30
2023-06-13T07:03:02.054Z,25.30
2023-06-13T07:05:28.806Z,25.30
2023-06-13T07:07:55.590Z,25.40
2023-06-13T07:10:22.790Z,25.40
2023-06-13T07:12:49.510Z,25.40
2023-06-13T07:15:16.268Z,25.40
2023-06-13T07:17:43.021Z,25.40
2023-06-13T07:20:10.526Z,25.40
2023-06-13T07:22:37.318Z,25.40
2023-06-13T07:25:04.878Z,25.40
2023-06-13T07:27:31.695Z,25.40
2023-06-13T07:29:58.445Z,25.40
2023-06-13T07:32:25.519Z,25.40
2023-06-13T07:35:04.759Z,25.40
2023-06-13T07:37:33.097Z,25.50
2023-06-13T07:39:59.923Z,25.50
2023-06-13T07:42:27.889Z,25.50
2023-06-13T07:44:55.040Z,25.50
2023-06-13T07:47:21.863Z,25.50
2023-06-13T07:49:48.694Z,25.50
2023-06-13T07:52:15.869Z,25.50
2023-06-13T07:54:42.663Z,25.50
2023-06-13T07:59:39.054Z,25.50
2023-06-13T08:02:06.757Z,25.50
2023-06-13T08:04:48.339Z,25.60
2023-06-13T08:07:19.631Z,25.50
2023-06-13T08:09:46.432Z,25.60
2023-06-13T08:12:13.416Z,25.60
2023-06-13T08:14:40.201Z,25.60
2023-06-13T08:17:07.124Z,25.60
2023-06-13T08:19:33.872Z,25.60
2023-06-13T08:22:00.814Z,25.60
2023-06-13T08:24:27.692Z,25.60
2023-06-13T08:26:55.097Z,25.60
2023-06-13T08:29:21.934Z,25.60
2023-06-13T08:31:50.260Z,25.60
2023-06-13T08:34:18.700Z,25.70
2023-06-13T08:36:45.597Z,25.60
2023-06-13T08:39:12.592Z,25.60
2023-06-13T08:41:40.665Z,25.60
2023-06-13T08:44:08.814Z,25.60
2023-06-13T08:46:37.326Z,25.60
2023-06-13T08:49:04.972Z,25.70
2023-06-13T08:51:32.537Z,25.70
2023-06-13T08:54:04.515Z,25.60
2023-06-13T08:56:36.294Z,25.70
2023-06-13T08:59:08.988Z,25.70
2023-06-13T09:01:40.340Z,25.70
2023-06-13T09:04:12.277Z,25.70
2023-06-13T09:06:40.108Z,25.70
2023-06-13T09:09:07.604Z,25.70
2023-06-13T09:11:38.082Z,25.70
2023-06-13T09:14:06.533Z,25.70
2023-06-13T09:16:34.292Z,25.70
2023-06-13T09:19:01.385Z,25.70
2023-06-13T09:21:29.830Z,25.70
2023-06-13T09:23:57.227Z,25.70
2023-06-13T09:26:24.980Z,25.70
2023-06-13T09:28:52.497Z,25.70
2023-06-13T09:31:19.382Z,25.70
2023-06-13T09:33:46.773Z,25.70
2023-06-13T09:36:13.990Z,25.70
2023-06-13T09:38:42.987Z,25.70
2023-06-13T09:41:15.499Z,25.70
2023-06-13T09:43:43.185Z,25.70
2023-06-13T09:46:14.156Z,25.70
2023-06-13T09:48:46.209Z,25.70
2023-06-13T09:51:13.438Z,25.70
2023-06-13T09:53:40.774Z,25.70
2023-06-13T09:56:11.711Z,25.70
2023-06-13T09:58:38.961Z,25.70
2023-06-13T10:01:07.127Z,25.70
2023-06-13T10:03:33.944Z,25.70
2023-06-13T10:06:01.898Z,25.70
2023-06-13T10:08:28.823Z,25.70
2023-06-13T10:10:56.750Z,25.70
2023-06-13T10:13:27.629Z,25.70
2023-06-13T10:15:58.895Z,25.70
2023-06-13T10:18:35.122Z,25.70
2023-06-13T10:21:03.415Z,25.70
2023-06-13T10:23:33.769Z,25.70
2023-06-13T10:26:07.531Z,25.70
2023-06-13T10:28:52.547Z,25.70
2023-06-13T10:31:37.911Z,25.70
2023-06-13T10:34:41.212Z,25.70
2023-06-13T10:37:27.196Z,25.70
2023-06-13T10:40:14.026Z,25.70
2023-06-13T10:43:03.687Z,25.70
2023-06-13T10:45:31.592Z,25.70
2023-06-13T10:48:08.427Z,25.70
2023-06-13T10:50:40.205Z,25.70
2023-06-13T10:53:10.149Z,25.70
2023-06-13T10:55:39.976Z,25.70
2023-06-13T10:58:13.564Z,25.70
2023-06-13T11:00:40.800Z,25.70
2023-06-13T11:03:12.773Z,25.70
2023-06-13T11:05:49.974Z,25.70
2023-06-13T11:08:21.873Z,25.70
2023-06-13T11:10:50.892Z,25.70
2023-06-13T11:13:20.971Z,25.70
2023-06-13T11:15:49.196Z,25.70
2023-06-13T11:18:16.222Z,25.70
2023-06-13T11:20:54.008Z,25.70
2023-06-13T11:23:43.886Z,25.70
2023-06-13T11:26:12.089Z,25.70
2023-06-13T11:28:38.948Z,25.70
2023-06-13T11:31:07.100Z,25.70
2023-06-13T11:33:44.279Z,25.70
2023-06-13T11:36:11.878Z,25.70
2023-06-13T11:39:04.921Z,25.70
2023-06-13T11:41:32.798Z,25.70
2023-06-13T11:43:59.720Z,25.70
2023-06-13T11:46:26.933Z,25.70
2023-06-13T11:49:00.328Z,25.70
2023-06-13T11:51:36.237Z,25.70
2023-06-13T11:54:03.496Z,25.70
2023-06-13T11:56:31.477Z,25.70
2023-06-13T12:01:28.873Z,25.70
2023-06-13T12:03:59.248Z,25.70
2023-06-13T12:06:26.757Z,25.70
2023-06-13T12:08:53.771Z,25.70
2023-06-13T12:11:26.810Z,25.70
2023-06-13T12:13:59.672Z,25.70
2023-06-13T12:16:31.277Z,25.70
2023-06-13T12:18:58.486Z,25.70
2023-06-13T12:21:43.486Z,25.70
2023-06-13T12:24:10.954Z,25.70
2023-06-13T12:26:42.648Z,25.70
2023-06-13T12:29:12.672Z,25.70
2023-06-13T12:31:44.364Z,25.70
2023-06-13T12:34:31.849Z,25.60
2023-06-13T12:37:08.256Z,25.70
2023-06-13T12:39:36.310Z,25.60
2023-06-13T12:42:07.567Z,25.70
2023-06-13T12:44:35.653Z,25.60
2023-06-13T12:47:04.150Z,25.60
2023-06-13T12:49:38.482Z,25.60
2023-06-13T12:52:15.550Z,25.60
2023-06-13T12:54:42.746Z,25.60
2023-06-13T12:57:14.399Z,25.60
2023-06-13T12:59:43.733Z,25.60
2023-06-13T13:02:16.323Z,25.60
2023-06-13T13:07:27.196Z,25.60
2023-06-13T13:09:54.272Z,25.60
2023-06-13T13:12:21.269Z,25.60
2023-06-13T13:14:48.023Z,25.60
2023-06-13T13:17:15.884Z,25.60
2023-06-13T13:19:43.102Z,25.60
2023-06-13T13:22:10.744Z,25.60
2023-06-13T13:24:38.835Z,25.60
2023-06-13T13:27:06.662Z,25.60
2023-06-13T13:29:33.719Z,25.60
2023-06-13T13:32:00.977Z,25.60
2023-06-13T13:34:27.968Z,25.60
2023-06-13T13:36:55.389Z,25.60
2023-06-13T13:39:24.590Z,25.60
2023-06-13T13:41:52.517Z,25.60
2023-06-13T13:44:19.899Z,25.60
2023-06-13T13:46:46.851Z,25.60
2023-06-13T13:49:13.838Z,25.60
2023-06-13T13:51:42.752Z,25.60
2023-06-13T13:54:12.001Z,25.60
2023-06-13T13:56:38.815Z,25.60
2023-06-13T13:59:05.695Z,25.60
2023-06-13T14:01:32.510Z,25.60
2023-06-13T14:03:59.362Z,25.60
2023-06-13T14:06:26.162Z,25.60
2023-06-13T14:08:55.223Z,25.60
2023-06-13T14:11:24.538Z,25.60
2023-06-13T14:13:51.495Z,25.60
2023-06-13T14:16:18.484Z,25.60
2023-06-13T14:18:45.284Z,25.50
2023-06-13T14:21:11.973Z,25.50
2023-06-13T14:23:38.875Z,25.50
2023-06-13T14:26:05.626Z,25.50
2023-06-13T14:28:32.338Z,25.50
2023-06-13T14:30:59.033Z,25.50
2023-06-13T14:33:25.757Z,25.50
2023-06-13T14:35:53.280Z,25.60
2023-06-13T14:38:20.009Z,25.50
2023-06-13T14:40:46.741Z,25.50
2023-06-13T14:43:13.867Z,25.60
2023-06-13T14:45:40.680Z,25.50
2023-06-13T14:48:07.529Z,25.50
2023-06-13T14:50:34.350Z,25.50
2023-06-13T14:53:01.792Z,25.50
2023-06-13T14:55:29.891Z,25.50
2023-06-13T14:57:56.961Z,25.40
2023-06-13T15:00:23.961Z,25.40
2023-06-13T15:02:52.891Z,25.40
2023-06-13T15:05:20.605Z,25.40
2023-06-13T15:07:47.576Z,25.30
2023-06-13T15:10:14.465Z,25.30
2023-06-13T15:12:41.630Z,25.30
2023-06-13T15:15:08.803Z,25.30
2023-06-13T15:17:35.599Z,25.30
2023-06-13T15:20:03.385Z,25.30
2023-06-13T15:22:30.572Z,25.30
2023-06-13T15:24:57.316Z,25.30
2023-06-13T15:27:24.116Z,25.20
2023-06-13T15:29:50.859Z,25.20
2023-06-13T15:32:20.501Z,25.20
2023-06-13T15:34:47.677Z,25.20
2023-06-13T15:37:14.430Z,25.20
2023-06-13T15:39:41.355Z,25.10
2023-06-13T15:42:08.254Z,25.10
2023-06-13T15:44:35.441Z,25.10
2023-06-13T15:47:02.197Z,25.10
2023-06-13T15:49:28.934Z,25.10
2023-06-13T15:51:55.779Z,25.10
2023-06-13T15:54:22.525Z,25.10
2023-06-13T15:56:49.405Z,25.10
2023-06-13T15:59:16.187Z,25.10
2023-06-13T16:01:44.650Z,25.20
2023-06-13T16:04:12.553Z,25.20
2023-06-13T16:06:40.738Z,25.20
2023-06-13T16:09:07.842Z,25.20
2023-06-13T16:11:34.602Z,25.20
2023-06-13T16:14:01.488Z,25.20
2023-06-13T16:16:28.284Z,25.20
2023-06-13T16:18:55.082Z,25.30
2023-06-13T16:21:22.099Z,25.30
2023-06-13T16:23:48.976Z,25.30
2023-06-13T16:26:15.716Z,25.30
2023-06-13T16:28:42.525Z,25.30
2023-06-13T16:31:09.462Z,25.30
2023-06-13T16:33:37.769Z,25.30
2023-06-13T16:36:04.985Z,25.40
2023-06-13T16:38:31.754Z,25.40
2023-06-13T16:40:58.570Z,25.40
2023-06-13T16:43:25.376Z,25.40
2023-06-13T16:45:52.437Z,25.40
2023-06-13T16:48:19.174Z,25.40
2023-06-13T16:50:45.915Z,25.40
2023-06-13T16:53:12.680Z,25.40
2023-06-13T16:55:39.430Z,25.40
2023-06-13T16:58:06.217Z,25.40
2023-06-13T17:00:32.971Z,25.50
2023-06-13T17:02:59.824Z,25.50
2023-06-13T17:05:26.557Z,25.50
2023-06-13T17:07:53.292Z,25.50
2023-06-13T17:10:20.070Z,25.50
2023-06-13T17:12:47.431Z,25.50
2023-06-13T17:15:14.555Z,25.50
2023-06-13T17:17:41.634Z,25.60
2023-06-13T17:20:09.579Z,25.60
2023-06-13T17:22:37.620Z,25.60
2023-06-13T17:25:04.765Z,25.60
2023-06-13T17:27:31.452Z,25.60
2023-06-13T17:29:58.154Z,25.60
2023-06-13T17:32:25.010Z,25.60
2023-06-13T17:34:51.942Z,25.60
2023-06-13T17:37:19.414Z,25.60
2023-06-13T17:39:46.468Z,25.70
2023-06-13T17:42:14.315Z,25.70
2023-06-13T17:44:41.072Z,25.70
2023-06-13T17:47:07.993Z,25.70
2023-06-13T17:49:35.094Z,25.70
2023-06-13T17:52:02.138Z,25.70
2023-06-13T17:54:28.869Z,25.70
2023-06-13T17:56:56.371Z,25.70
2023-06-13T17:59:23.201Z,25.70
2023-06-13T18:01:50.677Z,25.70
2023-06-13T18:04:18.361Z,25.70
2023-06-13T18:06:45.976Z,25.80
2023-06-13T18:09:13.716Z,25.80
2023-06-13T18:11:40.624Z,25.80
2023-06-13T18:14:09.207Z,25.80
2023-06-13T18:16:37.000Z,25.80
2023-06-13T18:19:05.440Z,25.80
2023-06-13T18:21:32.619Z,25.80
2023-06-13T18:23:59.515Z,25.80
2023-06-13T18:26:27.434Z,25.80
2023-06-13T18:28:54.290Z,25.80
2023-06-13T18:31:21.545Z,25.80
2023-06-13T18:33:48.857Z,25.80
2023-06-13T18:36:16.532Z,25.80
2023-06-13T18:38:43.548Z,25.80
2023-06-13T18:41:10.881Z,25.70
2023-06-13T18:43:38.245Z,25.70
2023-06-13T18:46:05.643Z,25.70
2023-06-13T18:48:33.726Z,25.80
2023-06-13T18:51:00.754Z,25.80
2023-06-13T18:53:28.205Z,25.80
2023-06-13T18:55:55.650Z,25.80
2023-06-13T18:58:22.836Z,25.80
2023-06-13T19:00:51.200Z,25.80
2023-06-13T19:03:22.359Z,25.80
2023-06-13T19:05:49.609Z,25.80
2023-06-13T19:08:16.956Z,25.80
2023-06-13T19:10:43.956Z,25.80
2023-06-13T19:13:11.024Z,25.90
2023-06-13T19:15:38.349Z,25.90
2023-06-13T19:18:09.553Z,25.90
2023-06-13T19:20:37.372Z,25.90
2023-06-13T19:23:04.724Z,25.90
2023-06-13T19:25:32.033Z,25.90
2023-06-13T19:28:14.417Z,25.90
2023-06-13T19:30:46.611Z,25.90
2023-06-13T19:33:13.941Z,25.90
2023-06-13T19:35:41.765Z,25.90
2023-06-13T19:38:08.888Z,25.90
2023-06-13T19:40:36.482Z,25.90
2023-06-13T19:43:03.367Z,25.90
2023-06-13T19:45:30.166Z,25.90
2023-06-13T19:47:56.973Z,25.90
2023-06-13T19:50:24.047Z,25.90
2023-06-13T19:52:50.810Z,26.00
2023-06-13T19:55:18.528Z,25.90
2023-06-13T19:57:45.430Z,25.90
2023-06-13T20:00:17.060Z,25.90
2023-06-13T20:02:45.913Z,25.90
2023-06-13T20:05:13.059Z,25.90
2023-06-13T20:07:40.432Z,26.00
2023-06-13T20:10:09.298Z,26.00
2023-06-13T20:12:36.915Z,25.90
2023-06-13T20:15:06.357Z,26.00
2023-06-13T20:17:35.166Z,25.90
2023-06-13T20:20:08.850Z,25.90
2023-06-13T20:22:36.528Z,26.00
2023-06-13T20:25:03.810Z,26.00
2023-06-13T20:27:30.686Z,26.00
2023-06-13T20:29:57.626Z,25.90
2023-06-13T20:32:25.367Z,25.90
2023-06-13T20:34:52.586Z,26.00
2023-06-13T20:37:19.846Z,26.00
2023-06-13T20:39:46.673Z,26.00
2023-06-13T20:42:15.530Z,26.00
2023-06-13T20:44:49.661Z,25.90
2023-06-13T20:47:19.893Z,26.00
2023-06-13T20:49:51.526Z,26.00
2023-06-13T20:52:18.780Z,26.00
2023-06-13T20:54:45.555Z,26.00
2023-06-13T20:57:12.553Z,26.00
2023-06-13T20:59:39.364Z,25.90
2023-06-13T21:02:07.659Z,26.00
2023-06-13T21:04:34.450Z,25.90
2023-06-13T21:07:01.731Z,25.90
2023-06-13T21:09:28.964Z,25.90
2023-06-13T21:11:55.997Z,26.00
2023-06-13T21:14:22.864Z,25.90
2023-06-13T21:16:50.312Z,25.90
2023-06-13T21:19:19.352Z,25.90
2023-06-13T21:21:47.217Z,25.90
2023-06-13T21:24:14.054Z,25.90
2023-06-13T21:26:41.052Z,25.90
2023-06-13T21:29:07.859Z,25.90
2023-06-13T21:31:34.929Z,25.90
2023-06-13T21:34:01.748Z,25.90
2023-06-13T21:36:28.578Z,25.90
2023-06-13T21:38:55.581Z,25.90
2023-06-13T21:41:22.729Z,25.90
2023-06-13T21:43:49.783Z,25.90
2023-06-13T21:46:16.644Z,25.90
2023-06-13T21:48:44.938Z,25.90
2023-06-13T21:51:11.942Z,25.90
2023-06-13T21:53:38.792Z,25.90
2023-06-13T21:56:05.795Z,25.90
2023-06-13T21:58:32.588Z,25.90
2023-06-13T22:01:00.203Z,25.90
2023-06-13T22:03:27.879Z,25.90
2023-06-13T22:05:57.927Z,25.90
2023-06-13T22:08:25.056Z,25.90
2023-06-13T22:10:52.145Z,25.90
2023-06-13T22:13:19.231Z,25.80
2023-06-13T22:15:47.774Z,25.90
2023-06-13T22:18:15.494Z,25.80
2023-06-13T22:20:42.293Z,25.90
2023-06-13T22:23:09.098Z,25.80
2023-06-13T22:25:35.866Z,25.80
2023-06-13T22:28:02.646Z,25.80
2023-06-13T22:30:29.387Z,25.80
2023-06-13T22:32:56.431Z,25.80
2023-06-13T22:35:23.509Z,25.80
2023-06-13T22:37:50.674Z,25.80
2023-06-13T22:40:18.128Z,25.80
2023-06-13T22:42:45.332Z,25.80
2023-06-13T22:45:13.599Z,25.80
2023-06-13T22:47:40.559Z,25.80
2023-06-13T22:50:08.001Z,25.80
2023-06-13T22:52:35.999Z,25.80
2023-06-13T22:55:03.903Z,25.80
2023-06-13T22:57:31.359Z,25.80
2023-06-13T22:59:58.815Z,25.80
2023-06-13T23:02:25.866Z,25.70
2023-06-13T23:04:54.130Z,25.80
2023-06-13T23:07:21.756Z,25.70
2023-06-13T23:09:48.603Z,25.70
2023-06-13T23:12:15.536Z,25.70
2023-06-13T23:14:42.450Z,25.70
2023-06-13T23:17:09.184Z,25.80
2023-06-13T23:19:36.321Z,25.70
2023-06-13T23:22:03.186Z,25.70
2023-06-13T23:24:31.144Z,25.70
2023-06-13T23:26:58.189Z,25.70
2023-06-13T23:29:25.059Z,25.70
2023-06-13T23:31:52.074Z,25.70
2023-06-13T23:34:18.940Z,25.70
2023-06-13T23:36:45.987Z,25.70
2023-06-13T23:41:42.818Z,25.70
2023-06-13T23:44:09.698Z,25.70
2023-06-13T23:46:36.545Z,25.70
2023-06-13T23:49:03.364Z,25.70
2023-06-13T23:51:30.255Z,25.70
2023-06-13T23:53:57.007Z,25.70
2023-06-13T23:56:23.766Z,25.60
2023-06-13T23:58:50.513Z,25.60
